createdAt,value
2019-02-21T00:02:45.783Z,23.73
2019-02-21T00:05:35.555Z,24.30
2019-02-21T00:08:25.370Z,25.30
2019-02-21T00:11:15.152Z,25.40
2019-02-21T00:14:04.944Z,24.80
2019-02-21T00:16:54.771Z,22.97
2019-02-21T00:19:44.549Z,22.50
2019-02-21T00:22:34.330Z,22.23
2019-02-21T00:25:24.158Z,21.50
2019-02-21T00:28:13.964Z,22.57
2019-02-21T00:31:04.273Z,21.13
2019-02-21T00:33:54.482Z,23.03
2019-02-21T00:36:44.444Z,23.30
2019-02-21T00:39:34.206Z,23.57
2019-02-21T00:42:24.030Z,23.10
2019-02-21T00:45:13.815Z,22.73
2019-02-21T00:48:03.610Z,22.27
2019-02-21T00:50:53.395Z,22.97
2019-02-21T00:53:43.189Z,22.80
2019-02-21T00:56:32.937Z,21.87
2019-02-21T00:59:22.842Z,20.53
2019-02-21T01:02:12.629Z,21.47
2019-02-21T01:05:02.458Z,22.97
2019-02-21T01:08:11.093Z,22.57
2019-02-21T01:11:00.870Z,21.27
2019-02-21T01:13:50.703Z,23.50
2019-02-21T01:16:40.507Z,23.00
2019-02-21T01:19:30.343Z,23.20
2019-02-21T01:22:20.138Z,23.20
2019-02-21T01:25:09.925Z,23.87
2019-02-21T01:27:59.701Z,22.90
2019-02-21T01:30:56.716Z,23.13
2019-02-21T01:33:34.411Z,22.77
2019-02-21T01:36:24.225Z,24.20
2019-02-21T01:39:14.067Z,25.60
2019-02-21T01:42:03.851Z,26.20
2019-02-21T01:44:53.676Z,26.30
2019-02-21T01:47:43.447Z,27.27
2019-02-21T01:50:33.277Z,26.73
2019-02-21T01:53:23.038Z,29.97
2019-02-21T01:56:12.900Z,29.27
2019-02-21T01:59:02.619Z,30.23
2019-02-21T02:01:52.415Z,28.73
2019-02-21T02:04:42.189Z,31.00
2019-02-21T02:07:32.000Z,28.80
2019-02-21T02:10:21.806Z,30.40
2019-02-21T02:13:23.703Z,31.30
2019-02-21T02:15:54.677Z,32.30
2019-02-21T02:18:44.448Z,32.63
2019-02-21T02:21:34.203Z,31.17
2019-02-21T02:24:23.993Z,30.23
2019-02-21T02:27:13.743Z,32.20
2019-02-21T02:30:03.542Z,30.47
2019-02-21T02:32:53.279Z,32.00
2019-02-21T02:35:43.075Z,30.00
2019-02-21T02:38:32.881Z,30.10
2019-02-21T02:41:22.683Z,32.37
2019-02-21T02:44:12.479Z,32.20
2019-02-21T02:47:02.256Z,30.73
2019-02-21T02:49:52.042Z,32.83
2019-02-21T02:52:41.913Z,30.77
2019-02-21T02:55:31.708Z,32.93
2019-02-21T02:58:21.507Z,32.37
2019-02-21T03:01:11.374Z,34.27
2019-02-21T03:04:01.319Z,32.43
2019-02-21T03:06:45.689Z,34.63
2019-02-21T03:09:35.457Z,34.67
2019-02-21T03:12:25.220Z,34.90
2019-02-21T03:15:15.013Z,33.60
2019-02-21T03:18:04.780Z,35.97
2019-02-21T03:20:54.572Z,36.00
2019-02-21T03:23:44.358Z,38.20
2019-02-21T03:26:34.507Z,36.40
2019-02-21T03:29:24.310Z,38.00
2019-02-21T03:32:14.115Z,38.67
2019-02-21T03:35:03.893Z,37.23
2019-02-21T03:37:53.728Z,37.80
2019-02-21T03:40:43.609Z,36.43
2019-02-21T03:43:33.465Z,37.97
2019-02-21T03:46:23.332Z,36.70
2019-02-21T03:49:15.220Z,35.80
2019-02-21T03:52:04.994Z,36.93
2019-02-21T03:54:54.782Z,37.30
2019-02-21T03:57:44.558Z,38.13
2019-02-21T04:00:34.351Z,37.17
2019-02-21T04:03:24.132Z,36.30
2019-02-21T04:06:13.925Z,37.57
2019-02-21T04:09:04.532Z,37.40
2019-02-21T04:11:54.343Z,39.73
2019-02-21T04:14:44.115Z,36.47
2019-02-21T04:17:33.896Z,39.40
2019-02-21T04:20:23.690Z,42.40
2019-02-21T04:23:13.479Z,40.23
2019-02-21T04:26:03.282Z,38.97
2019-02-21T04:28:53.062Z,39.97
2019-02-21T04:31:42.833Z,38.97
2019-02-21T04:34:32.613Z,37.87
2019-02-21T04:37:22.379Z,39.67
2019-02-21T04:40:13.105Z,42.50
2019-02-21T04:43:02.880Z,38.43
2019-02-21T04:45:52.659Z,38.00
2019-02-21T04:48:42.446Z,41.27
2019-02-21T04:51:32.246Z,39.90
2019-02-21T04:54:22.046Z,38.10
2019-02-21T04:57:11.889Z,40.30
2019-02-21T05:00:01.696Z,38.67
2019-02-21T05:02:51.525Z,39.70
2019-02-21T05:05:41.678Z,39.20
2019-02-21T05:08:31.513Z,40.97
2019-02-21T05:11:21.340Z,43.10
2019-02-21T05:14:11.199Z,40.77
2019-02-21T05:17:01.022Z,39.50
2019-02-21T05:19:50.758Z,40.50
2019-02-21T05:22:40.588Z,40.43
2019-02-21T05:25:30.433Z,39.70
2019-02-21T05:28:41.181Z,41.87
2019-02-21T05:31:41.318Z,42.80
2019-02-21T05:34:50.005Z,41.87
2019-02-21T05:37:58.653Z,42.20
2019-02-21T05:41:07.349Z,43.10
2019-02-21T05:44:16.064Z,41.50
2019-02-21T05:47:21.769Z,40.97
2019-02-21T05:50:30.449Z,41.30
2019-02-21T05:53:39.091Z,42.20
2019-02-21T05:56:47.748Z,41.40
2019-02-21T05:59:52.617Z,39.83
2019-02-21T06:03:01.279Z,41.30
2019-02-21T06:06:06.592Z,42.80
2019-02-21T06:09:15.268Z,41.10
2019-02-21T06:12:33.110Z,41.73
2019-02-21T06:15:21.455Z,41.33
2019-02-21T06:18:30.083Z,42.70
2019-02-21T06:21:38.760Z,41.10
2019-02-21T06:24:47.417Z,41.63
2019-02-21T06:27:45.079Z,42.30
2019-02-21T06:30:47.892Z,39.07
2019-02-21T06:33:37.683Z,41.30
2019-02-21T06:36:27.506Z,43.07
2019-02-21T06:39:17.283Z,40.57
2019-02-21T06:42:07.073Z,41.67
2019-02-21T06:44:56.871Z,42.43
2019-02-21T06:47:46.655Z,44.13
2019-02-21T06:50:36.539Z,44.57
2019-02-21T06:53:26.404Z,47.87
2019-02-21T06:56:16.246Z,48.33
2019-02-21T06:59:06.021Z,44.00
2019-02-21T07:01:55.817Z,42.77
2019-02-21T07:04:45.651Z,44.40
2019-02-21T07:07:35.442Z,43.07
2019-02-21T07:10:25.246Z,44.67
2019-02-21T07:13:25.990Z,44.80
2019-02-21T07:15:52.657Z,41.00
2019-02-21T07:18:42.458Z,43.10
2019-02-21T07:21:32.239Z,42.07
2019-02-21T07:27:06.180Z,42.20
2019-02-21T07:29:56.003Z,43.73
2019-02-21T07:32:45.815Z,40.90
2019-02-21T07:35:35.609Z,43.10
2019-02-21T07:38:25.424Z,41.27
2019-02-21T07:41:15.682Z,42.17
2019-02-21T07:43:52.841Z,42.03
2019-02-21T07:46:42.711Z,42.43
2019-02-21T07:49:32.512Z,41.60
2019-02-21T07:52:22.327Z,41.00
2019-02-21T07:55:12.194Z,43.37
2019-02-21T07:58:03.944Z,40.07
2019-02-21T08:00:45.194Z,41.73
2019-02-21T08:03:43.825Z,42.80
2019-02-21T08:06:19.970Z,43.47
2019-02-21T08:09:01.351Z,43.10
2019-02-21T08:11:51.158Z,40.10
2019-02-21T08:14:43.301Z,42.70
2019-02-21T08:17:24.049Z,42.97
2019-02-21T08:20:13.867Z,41.40
2019-02-21T08:23:03.683Z,40.70
2019-02-21T08:25:53.450Z,39.03
2019-02-21T08:28:43.252Z,39.73
2019-02-21T08:31:33.012Z,40.70
2019-02-21T08:34:35.736Z,37.97
2019-02-21T08:37:25.522Z,38.30
2019-02-21T08:40:15.341Z,36.10
2019-02-21T08:43:05.158Z,40.33
2019-02-21T08:45:57.441Z,38.03
2019-02-21T08:48:32.480Z,31.37
2019-02-21T08:51:22.294Z,31.30
2019-02-21T08:54:12.131Z,30.50
2019-02-21T08:57:01.901Z,32.70
2019-02-21T08:59:51.656Z,34.13
2019-02-21T09:02:41.487Z,33.43
2019-02-21T09:05:31.259Z,30.07
2019-02-21T09:08:21.039Z,32.80
2019-02-21T09:11:10.834Z,31.03
2019-02-21T09:14:00.634Z,30.10
2019-02-21T09:16:50.415Z,32.23
2019-02-21T09:19:40.251Z,28.97
2019-02-21T09:22:30.054Z,27.20
2019-02-21T09:25:19.860Z,26.53
2019-02-21T09:28:09.705Z,24.17
2019-02-21T09:30:59.557Z,25.80
2019-02-21T09:33:49.355Z,25.90
2019-02-21T09:36:39.136Z,25.37
2019-02-21T09:39:28.952Z,24.60
2019-02-21T09:42:18.828Z,24.00
2019-02-21T09:45:11.729Z,23.70
2019-02-21T09:48:01.540Z,24.87
2019-02-21T09:50:51.392Z,25.03
2019-02-21T09:53:41.184Z,24.03
2019-02-21T09:56:31.063Z,23.07
2019-02-21T09:59:39.886Z,22.50
2019-02-21T10:02:29.730Z,23.90
2019-02-21T10:05:19.536Z,25.73
2019-02-21T10:08:09.342Z,23.97
2019-02-21T10:11:00.861Z,26.30
2019-02-21T10:13:45.407Z,26.40
2019-02-21T10:16:35.217Z,23.50
2019-02-21T10:19:25.002Z,22.73
2019-02-21T10:22:14.817Z,23.47
2019-02-21T10:25:05.270Z,24.73
2019-02-21T10:27:55.094Z,25.00
2019-02-21T10:30:44.901Z,25.57
2019-02-21T10:33:34.685Z,25.97
2019-02-21T10:36:24.562Z,26.87
2019-02-21T10:39:14.387Z,27.87
2019-02-21T10:42:04.340Z,30.57
2019-02-21T10:44:54.135Z,30.90
2019-02-21T10:47:43.944Z,31.70
2019-02-21T10:50:33.734Z,30.00
2019-02-21T10:53:23.533Z,32.60
2019-02-21T10:56:13.379Z,31.13
2019-02-21T10:59:03.191Z,29.40
2019-02-21T11:01:53.082Z,27.67
2019-02-21T11:04:54.073Z,26.10
2019-02-21T11:07:25.330Z,26.43
2019-02-21T11:13:36.780Z,26.60
2019-02-21T11:16:26.556Z,25.97
2019-02-21T11:19:16.369Z,25.27
2019-02-21T11:22:06.109Z,25.97
2019-02-21T11:24:55.899Z,25.63
2019-02-21T11:27:45.646Z,24.20
2019-02-21T11:30:35.439Z,26.90
2019-02-21T11:33:25.183Z,26.03
2019-02-21T11:36:14.986Z,27.53
2019-02-21T11:42:28.934Z,24.27
2019-02-21T11:48:45.491Z,25.87
2019-02-21T11:51:35.250Z,24.20
2019-02-21T11:54:27.250Z,26.63
2019-02-21T11:57:16.610Z,27.17
2019-02-21T12:03:29.202Z,24.37
2019-02-21T12:06:18.993Z,25.60
2019-02-21T12:12:30.789Z,24.57
2019-02-21T12:15:20.547Z,27.00
2019-02-21T12:18:10.441Z,26.90
2019-02-21T12:21:00.199Z,28.90
2019-02-21T12:23:49.991Z,29.37
2019-02-21T12:26:39.773Z,31.40
2019-02-21T12:29:29.564Z,30.00
2019-02-21T12:32:19.396Z,29.97
2019-02-21T12:35:09.338Z,30.30
2019-02-21T12:37:59.136Z,33.03
2019-02-21T12:40:48.923Z,30.40
2019-02-21T12:43:38.673Z,30.47
2019-02-21T12:46:28.450Z,31.50
2019-02-21T12:49:18.191Z,31.43
2019-02-21T12:52:08.003Z,30.50
2019-02-21T12:54:57.751Z,30.67
2019-02-21T12:57:47.561Z,28.87
2019-02-21T13:00:37.341Z,24.27
2019-02-21T13:03:27.109Z,26.37
2019-02-21T13:06:16.908Z,26.00
2019-02-21T13:11:49.523Z,22.80
2019-02-21T13:14:39.288Z,23.27
2019-02-21T13:17:29.084Z,22.33
2019-02-21T13:20:18.869Z,21.40
2019-02-21T13:23:08.725Z,18.20
2019-02-21T13:25:58.630Z,19.60
2019-02-21T13:28:48.437Z,21.47
2019-02-21T13:31:38.214Z,19.20
2019-02-21T13:34:28.011Z,18.27
2019-02-21T13:37:28.280Z,18.43
2019-02-21T13:40:01.173Z,16.70
2019-02-21T13:42:50.933Z,16.77
2019-02-21T13:45:40.758Z,18.20
2019-02-21T13:48:30.599Z,15.93
2019-02-21T13:51:20.411Z,16.20
2019-02-21T13:54:10.232Z,16.33
2019-02-21T13:57:00.062Z,15.67
2019-02-21T13:59:49.862Z,15.40
2019-02-21T14:02:39.702Z,15.03
2019-02-21T14:05:29.488Z,17.23
2019-02-21T14:08:19.309Z,18.00
2019-02-21T14:11:09.197Z,19.83
2019-02-21T14:13:58.994Z,20.50
2019-02-21T14:16:48.787Z,20.53
2019-02-21T14:19:38.667Z,21.63
2019-02-21T14:22:28.540Z,22.73
2019-02-21T14:25:18.330Z,21.80
2019-02-21T14:28:08.148Z,21.43
2019-02-21T14:30:57.981Z,19.60
2019-02-21T14:33:47.772Z,21.70
2019-02-21T14:36:37.584Z,20.07
2019-02-21T14:39:27.393Z,20.67
2019-02-21T14:42:17.177Z,20.20
2019-02-21T14:45:08.050Z,20.53
2019-02-21T14:47:57.846Z,22.00
2019-02-21T14:50:47.622Z,19.90
2019-02-21T14:53:37.427Z,19.13
2019-02-21T14:56:27.223Z,19.77
2019-02-21T15:02:20.176Z,20.33
2019-02-21T15:05:10.237Z,20.50
2019-02-21T15:07:53.023Z,19.77
2019-02-21T15:10:42.852Z,19.37
2019-02-21T15:13:32.671Z,19.57
2019-02-21T15:16:22.450Z,19.40
2019-02-21T15:19:12.252Z,18.53
2019-02-21T15:22:02.044Z,18.87
2019-02-21T15:24:51.814Z,18.77
2019-02-21T15:27:41.628Z,18.37
2019-02-21T15:30:31.563Z,19.53
2019-02-21T15:33:21.376Z,18.57
2019-02-21T15:36:11.243Z,17.67
2019-02-21T15:39:01.053Z,19.03
2019-02-21T15:41:50.878Z,17.97
2019-02-21T15:44:40.662Z,21.10
2019-02-21T15:47:30.456Z,19.57
2019-02-21T15:50:20.487Z,20.83
2019-02-21T15:53:10.386Z,21.40
2019-02-21T15:56:00.189Z,20.37
2019-02-21T15:58:49.974Z,22.97
2019-02-21T16:01:47.081Z,21.00
2019-02-21T16:04:24.033Z,20.87
2019-02-21T16:07:13.846Z,20.70
2019-02-21T16:10:03.655Z,21.13
2019-02-21T16:12:53.541Z,20.60
2019-02-21T16:15:43.366Z,19.73
2019-02-21T16:18:33.138Z,19.47
2019-02-21T16:21:22.943Z,20.30
2019-02-21T16:24:12.753Z,18.90
2019-02-21T16:27:02.616Z,21.27
2019-02-21T16:29:52.435Z,21.77
2019-02-21T16:32:42.265Z,19.90
2019-02-21T16:35:32.042Z,22.80
2019-02-21T16:38:21.891Z,22.60
2019-02-21T16:41:11.689Z,22.63
2019-02-21T16:44:01.501Z,22.33
2019-02-21T16:46:51.274Z,22.40
2019-02-21T16:49:41.148Z,22.70
2019-02-21T16:52:30.939Z,24.80
2019-02-21T16:55:20.759Z,21.70
2019-02-21T16:58:10.544Z,23.27
2019-02-21T17:01:00.326Z,24.67
2019-02-21T17:03:50.125Z,22.63
2019-02-21T17:06:39.936Z,22.50
2019-02-21T17:09:29.710Z,22.77
2019-02-21T17:12:19.502Z,22.10
2019-02-21T17:15:10.582Z,23.47
2019-02-21T17:18:03.829Z,21.20
2019-02-21T17:20:44.518Z,22.03
2019-02-21T17:23:34.292Z,21.13
2019-02-21T17:26:24.034Z,22.37
2019-02-21T17:29:13.831Z,20.50
2019-02-21T17:32:03.613Z,20.93
2019-02-21T17:34:53.411Z,21.07
2019-02-21T17:37:43.161Z,22.27
2019-02-21T17:40:32.969Z,22.70
2019-02-21T17:43:22.726Z,20.73
2019-02-21T17:46:12.540Z,22.73
2019-02-21T17:49:02.296Z,20.57
2019-02-21T17:51:53.810Z,19.90
2019-02-21T17:54:35.131Z,19.27
2019-02-21T17:57:24.918Z,21.73
2019-02-21T18:00:17.506Z,20.50
2019-02-21T18:03:07.344Z,19.10
2019-02-21T18:05:57.138Z,18.50
2019-02-21T18:08:46.927Z,18.10
2019-02-21T18:11:36.765Z,18.50
2019-02-21T18:14:26.543Z,19.53
2019-02-21T18:17:16.343Z,19.97
2019-02-21T18:20:06.712Z,18.90
2019-02-21T18:22:56.507Z,17.80
2019-02-21T18:26:07.112Z,16.80
2019-02-21T18:28:56.927Z,16.70
2019-02-21T18:31:46.744Z,16.80
2019-02-21T18:34:36.604Z,17.67
2019-02-21T18:37:26.441Z,15.57
2019-02-21T18:40:19.699Z,15.67
2019-02-21T18:43:08.329Z,16.40
2019-02-21T18:45:58.131Z,14.80
2019-02-21T18:48:47.919Z,15.57
2019-02-21T18:51:37.723Z,14.20
2019-02-21T18:54:27.592Z,14.40
2019-02-21T18:57:17.405Z,15.40
2019-02-21T19:03:33.429Z,17.10
2019-02-21T19:06:23.228Z,18.13
2019-02-21T19:09:13.051Z,17.83
2019-02-21T19:12:02.859Z,18.20
2019-02-21T19:14:52.744Z,16.23
2019-02-21T19:17:42.527Z,18.80
2019-02-21T19:20:32.369Z,18.00
2019-02-21T19:23:22.227Z,19.20
2019-02-21T19:26:12.401Z,20.47
2019-02-21T19:29:02.317Z,17.80
2019-02-21T19:31:52.186Z,18.70
2019-02-21T19:34:42.069Z,19.03
2019-02-21T19:37:32.073Z,17.63
2019-02-21T19:40:21.973Z,16.97
2019-02-21T19:43:11.885Z,17.53
2019-02-21T19:46:01.768Z,17.80
2019-02-21T19:48:51.745Z,18.43
2019-02-21T19:51:41.686Z,18.60
2019-02-21T19:54:31.529Z,18.77
2019-02-21T19:57:21.412Z,17.77
2019-02-21T20:00:26.231Z,18.50
2019-02-21T20:03:16.065Z,17.67
2019-02-21T20:06:06.001Z,17.93
2019-02-21T20:08:55.947Z,18.57
2019-02-21T20:11:45.754Z,17.67
2019-02-21T20:14:35.605Z,18.83
2019-02-21T20:17:25.534Z,18.77
2019-02-21T20:20:16.751Z,19.33
2019-02-21T20:23:06.570Z,19.43
2019-02-21T20:25:56.392Z,20.90
2019-02-21T20:28:46.303Z,18.57
2019-02-21T20:31:37.247Z,18.33
2019-02-21T20:34:27.166Z,19.10
2019-02-21T20:37:17.004Z,21.00
2019-02-21T20:40:07.195Z,19.47
2019-02-21T20:42:57.121Z,20.20
2019-02-21T20:45:53.156Z,19.60
2019-02-21T20:48:30.689Z,20.07
2019-02-21T20:51:13.462Z,20.80
2019-02-21T20:54:03.315Z,19.20
2019-02-21T20:56:53.166Z,20.70
2019-02-21T20:59:43.003Z,21.13
2019-02-21T21:02:33.512Z,22.83
2019-02-21T21:05:23.700Z,20.83
2019-02-21T21:08:13.670Z,22.13
2019-02-21T21:11:03.733Z,20.97
2019-02-21T21:13:56.514Z,21.03
2019-02-21T21:16:48.384Z,20.20
2019-02-21T21:19:38.250Z,20.10
2019-02-21T21:22:28.118Z,19.57
2019-02-21T21:25:18.009Z,19.90
2019-02-21T21:28:07.999Z,19.60
2019-02-21T21:30:57.862Z,19.93
2019-02-21T21:33:47.784Z,20.67
2019-02-21T21:36:37.587Z,19.63
2019-02-21T21:39:27.459Z,18.60
2019-02-21T21:42:17.342Z,18.80
2019-02-21T21:45:09.561Z,18.20
2019-02-21T21:47:59.406Z,18.73
2019-02-21T21:50:49.264Z,18.53
2019-02-21T21:53:39.106Z,18.70
2019-02-21T21:56:28.915Z,17.87
2019-02-21T21:59:18.705Z,27.30
2019-02-21T22:02:08.595Z,32.20
2019-02-21T22:04:58.419Z,23.90
2019-02-21T22:07:49.290Z,22.20
2019-02-21T22:10:25.793Z,17.37
2019-02-21T22:13:15.594Z,18.03
2019-02-21T22:16:05.390Z,17.33
2019-02-21T22:18:55.181Z,16.73
2019-02-21T22:21:44.976Z,14.67
2019-02-21T22:24:34.784Z,16.47
2019-02-21T22:27:24.970Z,14.70
2019-02-21T22:30:10.037Z,15.03
2019-02-21T22:32:59.837Z,14.53
2019-02-21T22:35:50.029Z,14.60
2019-02-21T22:38:39.878Z,15.30
2019-02-21T22:41:48.710Z,14.67
2019-02-21T22:44:38.496Z,15.40
2019-02-21T22:47:28.293Z,15.03
2019-02-21T22:50:18.120Z,15.40
2019-02-21T22:53:07.979Z,15.27
2019-02-21T22:55:57.773Z,15.43
2019-02-21T22:58:47.584Z,14.00
2019-02-21T23:01:40.403Z,16.03
2019-02-21T23:05:08.323Z,15.03
2019-02-21T23:08:22.122Z,14.20
2019-02-21T23:11:12.054Z,15.93
2019-02-21T23:14:01.816Z,15.60
2019-02-21T23:16:51.691Z,15.50
2019-02-21T23:19:41.491Z,17.10
2019-02-21T23:22:31.306Z,17.43
2019-02-21T23:25:21.107Z,16.40
2019-02-21T23:28:10.920Z,15.53
2019-02-21T23:31:00.679Z,17.27
2019-02-21T23:36:50.195Z,15.27
2019-02-21T23:39:39.959Z,17.03
2019-02-21T23:42:29.774Z,18.50
2019-02-21T23:45:19.556Z,19.07
2019-02-21T23:48:09.390Z,20.07
2019-02-21T23:50:59.177Z,20.40
2019-02-21T23:53:48.989Z,19.07
2019-02-21T23:56:39.773Z,20.60
2019-02-21T23:59:29.574Z,19.40
